createdAt,value
2018-03-07T00:00:07.621Z,9.40
2018-03-07T00:02:34.633Z,9.40
2018-03-07T00:05:00.982Z,9.40
2018-03-07T00:07:28.070Z,9.40
2018-03-07T00:09:55.165Z,9.40
2018-03-07T00:12:21.258Z,9.40
2018-03-07T00:14:47.415Z,9.40
2018-03-07T00:17:14.216Z,9.40
2018-03-07T00:19:41.803Z,9.30
2018-03-07T00:22:08.645Z,9.30
2018-03-07T00:24:34.720Z,9.30
2018-03-07T00:27:01.580Z,9.30
2018-03-07T00:29:27.674Z,9.30
2018-03-07T00:31:53.781Z,9.30
2018-03-07T00:34:19.878Z,9.30
2018-03-07T00:36:45.967Z,9.20
2018-03-07T00:39:12.064Z,9.40
2018-03-07T00:41:38.880Z,9.20
2018-03-07T00:44:04.967Z,9.20
2018-03-07T00:46:31.854Z,9.10
2018-03-07T00:48:57.947Z,9.10
2018-03-07T00:51:24.073Z,9.10
2018-03-07T00:53:50.219Z,9.10
2018-03-07T00:56:16.319Z,9.10
2018-03-07T00:58:42.413Z,9.00
2018-03-07T01:01:09.241Z,9.00
2018-03-07T01:03:35.354Z,9.00
2018-03-07T01:06:01.472Z,9.00
2018-03-07T01:08:27.564Z,9.00
2018-03-07T01:10:53.831Z,9.00
2018-03-07T01:13:20.363Z,8.90
2018-03-07T01:15:46.664Z,8.90
2018-03-07T01:18:12.965Z,8.90
2018-03-07T01:20:39.236Z,8.90
2018-03-07T01:23:06.273Z,8.80
2018-03-07T01:25:32.612Z,8.80
2018-03-07T01:28:00.180Z,8.80
2018-03-07T01:30:27.988Z,8.60
2018-03-07T01:32:54.280Z,8.80
2018-03-07T01:35:20.543Z,8.70
2018-03-07T01:37:46.820Z,8.60
2018-03-07T01:40:13.848Z,8.60
2018-03-07T01:42:40.133Z,8.60
2018-03-07T01:45:06.444Z,8.60
2018-03-07T01:47:32.738Z,8.60
2018-03-07T01:50:00.125Z,8.60
2018-03-07T01:52:27.528Z,8.60
2018-03-07T01:54:53.640Z,8.50
2018-03-07T01:57:19.721Z,8.60
2018-03-07T01:59:46.558Z,8.50
2018-03-07T02:02:12.796Z,8.50
2018-03-07T02:04:38.893Z,8.40
2018-03-07T02:07:05.177Z,8.40
2018-03-07T02:09:31.516Z,8.40
2018-03-07T02:11:57.812Z,8.40
2018-03-07T02:14:24.826Z,8.30
2018-03-07T02:16:51.125Z,8.30
2018-03-07T02:19:17.453Z,8.40
2018-03-07T02:21:43.779Z,8.30
2018-03-07T02:24:13.229Z,8.30
2018-03-07T02:26:39.540Z,8.30
2018-03-07T02:29:05.838Z,8.20
2018-03-07T02:31:32.141Z,8.10
2018-03-07T02:33:59.183Z,8.10
2018-03-07T02:36:32.420Z,8.10
2018-03-07T02:38:58.725Z,8.10
2018-03-07T02:41:25.009Z,8.00
2018-03-07T02:43:52.042Z,7.90
2018-03-07T02:46:18.156Z,7.90
2018-03-07T02:48:44.255Z,7.80
2018-03-07T02:51:11.292Z,7.90
2018-03-07T02:53:37.400Z,7.80
2018-03-07T02:56:03.502Z,7.80
2018-03-07T02:58:30.368Z,7.80
2018-03-07T03:00:56.485Z,7.70
2018-03-07T03:03:23.332Z,7.70
2018-03-07T03:05:49.427Z,7.70
2018-03-07T03:08:15.518Z,7.70
2018-03-07T03:13:13.644Z,7.70
2018-03-07T03:15:39.963Z,7.60
2018-03-07T03:18:06.057Z,7.60
2018-03-07T03:20:32.386Z,7.50
2018-03-07T03:22:58.670Z,7.50
2018-03-07T03:25:24.987Z,7.40
2018-03-07T03:27:51.995Z,7.40
2018-03-07T03:30:18.313Z,7.40
2018-03-07T03:32:44.629Z,7.40
2018-03-07T03:35:11.661Z,7.30
2018-03-07T03:37:38.716Z,7.20
2018-03-07T03:40:05.560Z,7.20
2018-03-07T03:42:31.678Z,7.20
2018-03-07T03:44:57.786Z,7.10
2018-03-07T03:47:23.886Z,7.10
2018-03-07T03:49:50.007Z,7.00
2018-03-07T03:52:16.117Z,7.00
2018-03-07T03:54:42.223Z,7.00
2018-03-07T03:57:08.332Z,7.00
2018-03-07T03:59:34.436Z,6.90
2018-03-07T04:02:02.159Z,6.90
2018-03-07T04:04:28.278Z,6.90
2018-03-07T04:06:54.364Z,6.80
2018-03-07T04:09:20.652Z,6.80
2018-03-07T04:11:46.932Z,6.80
2018-03-07T04:14:13.241Z,6.80
2018-03-07T04:16:39.544Z,6.70
2018-03-07T04:19:06.594Z,6.50
2018-03-07T04:21:32.693Z,6.50
2018-03-07T04:23:58.816Z,6.40
2018-03-07T04:26:25.109Z,6.20
2018-03-07T04:28:54.401Z,6.30
2018-03-07T04:31:22.072Z,6.30
2018-03-07T04:33:48.196Z,6.40
2018-03-07T04:36:14.324Z,6.30
2018-03-07T04:38:40.416Z,6.30
2018-03-07T04:41:06.516Z,6.20
2018-03-07T04:43:32.612Z,6.20
2018-03-07T04:45:58.787Z,6.20
2018-03-07T04:48:26.551Z,6.20
2018-03-07T04:50:54.012Z,6.00
2018-03-07T04:53:20.305Z,6.00
2018-03-07T04:55:46.434Z,6.00
2018-03-07T04:58:12.534Z,6.00
2018-03-07T05:00:38.633Z,6.00
2018-03-07T05:03:04.723Z,5.90
2018-03-07T05:05:31.595Z,5.80
2018-03-07T05:07:57.688Z,5.80
2018-03-07T05:10:23.788Z,5.70
2018-03-07T05:12:49.928Z,5.70
2018-03-07T05:15:16.038Z,5.60
2018-03-07T05:17:42.884Z,5.60
2018-03-07T05:20:08.988Z,5.60
2018-03-07T05:22:35.084Z,5.60
2018-03-07T05:25:02.542Z,5.60
2018-03-07T05:27:29.397Z,5.60
2018-03-07T05:29:55.525Z,5.50
2018-03-07T05:32:21.607Z,5.50
2018-03-07T05:34:48.471Z,5.50
2018-03-07T05:37:14.604Z,5.50
2018-03-07T05:39:41.440Z,5.50
2018-03-07T05:42:07.537Z,5.40
2018-03-07T05:44:35.725Z,5.30
2018-03-07T05:47:01.990Z,5.30
2018-03-07T05:49:30.710Z,5.30
2018-03-07T05:51:56.860Z,5.30
2018-03-07T05:54:22.983Z,5.30
2018-03-07T05:56:49.085Z,5.30
2018-03-07T05:59:15.173Z,5.30
2018-03-07T06:01:41.296Z,5.30
2018-03-07T06:04:07.521Z,5.20
2018-03-07T06:06:33.924Z,5.20
2018-03-07T06:09:00.051Z,5.20
2018-03-07T06:11:26.987Z,5.00
2018-03-07T06:13:54.692Z,5.00
2018-03-07T06:16:22.131Z,5.00
2018-03-07T06:18:48.350Z,5.00
2018-03-07T06:21:14.460Z,5.00
2018-03-07T06:23:40.575Z,5.00
2018-03-07T06:26:07.454Z,4.90
2018-03-07T06:28:33.651Z,4.90
2018-03-07T06:30:59.767Z,4.90
2018-03-07T06:33:25.887Z,4.80
2018-03-07T06:35:51.983Z,4.80
2018-03-07T06:38:18.824Z,4.70
2018-03-07T06:40:44.925Z,4.70
2018-03-07T06:43:11.121Z,4.70
2018-03-07T06:45:37.288Z,4.60
2018-03-07T06:48:03.383Z,4.70
2018-03-07T06:50:30.239Z,4.60
2018-03-07T06:52:56.343Z,4.60
2018-03-07T06:55:22.431Z,4.70
2018-03-07T06:57:49.263Z,4.70
2018-03-07T07:00:15.378Z,4.60
2018-03-07T07:02:41.496Z,4.60
2018-03-07T07:05:07.609Z,4.70
2018-03-07T07:07:34.452Z,4.80
2018-03-07T07:10:01.289Z,4.80
2018-03-07T07:12:27.402Z,4.80
2018-03-07T07:14:53.483Z,4.90
2018-03-07T07:17:19.595Z,4.90
2018-03-07T07:19:45.691Z,4.90
2018-03-07T07:22:18.632Z,4.90
2018-03-07T07:24:44.721Z,5.10
2018-03-07T07:27:10.863Z,5.00
2018-03-07T07:29:36.967Z,5.00
2018-03-07T07:32:03.810Z,5.10
2018-03-07T07:34:29.944Z,5.10
2018-03-07T07:36:56.108Z,5.10
2018-03-07T07:39:22.939Z,5.20
2018-03-07T07:41:49.037Z,5.20
2018-03-07T07:44:15.137Z,5.30
2018-03-07T07:46:41.241Z,5.60
2018-03-07T07:49:07.456Z,5.40
2018-03-07T07:51:37.660Z,5.70
2018-03-07T07:54:04.490Z,5.90
2018-03-07T07:56:30.579Z,5.90
2018-03-07T07:58:57.017Z,6.00
2018-03-07T08:01:23.952Z,6.30
2018-03-07T08:03:50.828Z,6.40
2018-03-07T08:06:16.919Z,6.40
2018-03-07T08:08:43.791Z,6.80
2018-03-07T08:11:09.923Z,6.80
2018-03-07T08:13:36.028Z,7.00
2018-03-07T08:16:02.121Z,7.10
2018-03-07T08:18:29.009Z,7.40
2018-03-07T08:20:55.121Z,7.40
2018-03-07T08:23:21.964Z,7.80
2018-03-07T08:25:48.804Z,8.00
2018-03-07T08:28:14.905Z,8.00
2018-03-07T08:30:41.153Z,8.50
2018-03-07T08:33:07.332Z,8.90
2018-03-07T08:35:34.224Z,10.00
2018-03-07T08:38:00.350Z,10.00
2018-03-07T08:40:26.469Z,10.20
2018-03-07T08:42:52.575Z,10.20
2018-03-07T08:45:18.696Z,10.20
2018-03-07T08:47:44.831Z,10.10
2018-03-07T08:50:10.966Z,10.40
2018-03-07T08:52:37.072Z,10.10
2018-03-07T08:55:03.917Z,10.10
2018-03-07T08:57:30.832Z,10.10
2018-03-07T08:59:56.940Z,9.70
2018-03-07T09:02:23.780Z,10.20
2018-03-07T09:04:49.990Z,10.10
2018-03-07T09:07:16.128Z,10.20
2018-03-07T09:09:42.271Z,10.20
2018-03-07T09:12:10.145Z,10.20
2018-03-07T09:14:37.632Z,10.20
2018-03-07T09:17:03.776Z,10.30
2018-03-07T09:19:30.612Z,10.40
2018-03-07T09:21:56.722Z,10.40
2018-03-07T09:24:22.835Z,10.50
2018-03-07T09:26:49.694Z,10.70
2018-03-07T09:29:15.809Z,10.80
2018-03-07T09:31:46.978Z,10.80
2018-03-07T09:34:13.092Z,10.90
2018-03-07T09:36:39.213Z,11.00
2018-03-07T09:39:06.088Z,11.00
2018-03-07T09:41:32.197Z,10.90
2018-03-07T09:43:58.325Z,11.10
2018-03-07T09:46:24.435Z,11.00
2018-03-07T09:48:50.532Z,11.30
2018-03-07T09:53:47.729Z,11.20
2018-03-07T09:56:13.941Z,11.20
2018-03-07T09:58:39.995Z,11.20
2018-03-07T10:01:06.872Z,11.40
2018-03-07T10:03:32.968Z,11.40
2018-03-07T10:05:59.824Z,11.40
2018-03-07T10:08:25.919Z,11.40
2018-03-07T10:10:52.016Z,11.40
2018-03-07T10:13:18.888Z,11.40
2018-03-07T10:15:44.992Z,11.40
2018-03-07T10:18:11.149Z,11.40
2018-03-07T10:20:38.005Z,11.40
2018-03-07T10:23:04.122Z,11.40
2018-03-07T10:25:30.241Z,11.50
2018-03-07T10:27:56.366Z,11.20
2018-03-07T10:30:25.183Z,11.30
2018-03-07T10:32:51.290Z,11.10
2018-03-07T10:35:17.384Z,11.30
2018-03-07T10:37:43.490Z,11.30
2018-03-07T10:40:09.610Z,11.50
2018-03-07T10:42:35.728Z,11.50
2018-03-07T10:45:01.864Z,11.60
2018-03-07T10:47:28.001Z,11.30
2018-03-07T10:49:59.136Z,11.20
2018-03-07T10:52:25.228Z,11.20
2018-03-07T10:54:51.342Z,11.10
2018-03-07T10:57:17.448Z,11.00
2018-03-07T10:59:43.548Z,11.10
2018-03-07T11:02:09.738Z,11.20
2018-03-07T11:04:35.846Z,11.20
2018-03-07T11:07:01.990Z,11.30
2018-03-07T11:09:28.104Z,11.30
2018-03-07T11:11:56.141Z,11.40
2018-03-07T11:14:22.228Z,11.30
2018-03-07T11:16:48.348Z,11.20
2018-03-07T11:19:14.452Z,11.30
2018-03-07T11:21:40.566Z,11.30
2018-03-07T11:24:06.668Z,11.30
2018-03-07T11:26:32.779Z,11.30
2018-03-07T11:28:58.893Z,11.30
2018-03-07T11:31:24.993Z,11.30
2018-03-07T11:33:52.844Z,11.40
2018-03-07T11:36:19.968Z,11.40
2018-03-07T11:38:46.092Z,11.60
2018-03-07T11:41:12.192Z,11.80
2018-03-07T11:43:38.296Z,11.60
2018-03-07T11:46:04.419Z,11.50
2018-03-07T11:48:31.287Z,11.50
2018-03-07T11:50:58.132Z,11.30
2018-03-07T11:53:27.473Z,11.40
2018-03-07T11:55:54.321Z,11.20
2018-03-07T11:58:20.430Z,11.20
2018-03-07T12:00:46.537Z,11.30
2018-03-07T12:03:12.650Z,11.30
2018-03-07T12:05:38.817Z,11.50
2018-03-07T12:08:04.927Z,11.90
2018-03-07T12:10:31.038Z,11.80
2018-03-07T12:13:02.120Z,11.80
2018-03-07T12:15:28.226Z,11.80
2018-03-07T12:17:54.328Z,11.70
2018-03-07T12:20:20.430Z,11.80
2018-03-07T12:22:46.548Z,11.90
2018-03-07T12:25:12.650Z,11.80
2018-03-07T12:27:40.282Z,11.70
2018-03-07T12:30:06.394Z,11.80
2018-03-07T12:32:33.514Z,11.70
2018-03-07T12:34:59.616Z,11.70
2018-03-07T12:37:26.460Z,11.50
2018-03-07T12:39:52.561Z,11.50
2018-03-07T12:42:18.671Z,11.50
2018-03-07T12:44:44.772Z,11.40
2018-03-07T12:47:10.916Z,11.40
2018-03-07T12:49:37.786Z,11.30
2018-03-07T12:52:03.897Z,11.30
2018-03-07T12:54:29.988Z,11.20
2018-03-07T12:56:56.076Z,11.20
2018-03-07T12:59:22.914Z,11.10
2018-03-07T13:01:49.024Z,11.10
2018-03-07T13:04:15.154Z,11.00
2018-03-07T13:06:42.000Z,10.70
2018-03-07T13:09:08.104Z,10.70
2018-03-07T13:11:34.928Z,10.50
2018-03-07T13:14:01.021Z,10.50
2018-03-07T13:16:27.137Z,10.50
2018-03-07T13:18:53.256Z,10.60
2018-03-07T13:21:19.376Z,10.50
2018-03-07T13:23:45.529Z,10.60
2018-03-07T13:26:11.642Z,10.50
2018-03-07T13:28:37.752Z,10.50
2018-03-07T13:31:03.872Z,10.60
2018-03-07T13:33:30.709Z,10.60
2018-03-07T13:35:57.608Z,10.50
2018-03-07T13:38:24.439Z,10.50
2018-03-07T13:40:50.588Z,10.50
2018-03-07T13:43:16.700Z,10.60
2018-03-07T13:45:43.541Z,10.50
2018-03-07T13:48:09.633Z,10.50
2018-03-07T13:50:35.822Z,10.70
2018-03-07T13:53:01.913Z,10.70
2018-03-07T13:55:28.780Z,10.80
2018-03-07T13:57:54.879Z,10.80
2018-03-07T14:00:20.995Z,11.00
2018-03-07T14:02:47.201Z,11.20
2018-03-07T14:05:13.379Z,11.50
2018-03-07T14:07:40.252Z,11.40
2018-03-07T14:10:06.345Z,11.40
2018-03-07T14:12:32.484Z,11.50
2018-03-07T14:14:58.648Z,11.50
2018-03-07T14:17:25.496Z,11.70
2018-03-07T14:19:51.616Z,11.70
2018-03-07T14:22:17.728Z,11.60
2018-03-07T14:24:43.840Z,11.70
2018-03-07T14:27:09.953Z,11.70
2018-03-07T14:29:36.794Z,11.60
2018-03-07T14:32:02.908Z,11.60
2018-03-07T14:34:29.003Z,11.40
2018-03-07T14:36:55.833Z,11.50
2018-03-07T14:39:21.941Z,11.40
2018-03-07T14:41:48.117Z,11.40
2018-03-07T14:44:14.996Z,11.00
2018-03-07T14:46:41.101Z,11.00
2018-03-07T14:49:07.600Z,11.10
2018-03-07T14:51:33.717Z,11.20
2018-03-07T14:53:59.828Z,11.10
2018-03-07T14:56:25.924Z,11.10
2018-03-07T14:58:52.035Z,10.90
2018-03-07T15:01:18.350Z,10.80
2018-03-07T15:03:45.751Z,10.70
2018-03-07T15:06:11.876Z,10.70
2018-03-07T15:08:38.697Z,10.80
2018-03-07T15:11:04.772Z,10.80
2018-03-07T15:13:31.667Z,10.70
2018-03-07T15:15:57.897Z,10.70
2018-03-07T15:18:23.988Z,10.70
2018-03-07T15:20:50.832Z,10.40
2018-03-07T15:23:16.965Z,10.50
2018-03-07T15:25:43.048Z,10.70
2018-03-07T15:28:09.938Z,10.50
2018-03-07T15:30:36.074Z,10.50
2018-03-07T15:33:02.192Z,10.30
2018-03-07T15:35:29.041Z,10.20
2018-03-07T15:37:55.888Z,10.40
2018-03-07T15:40:22.753Z,10.30
2018-03-07T15:42:49.596Z,10.40
2018-03-07T15:45:16.101Z,10.30
2018-03-07T15:47:42.215Z,10.30
2018-03-07T15:50:08.360Z,10.30
2018-03-07T15:52:34.588Z,10.10
2018-03-07T15:55:01.417Z,10.30
2018-03-07T15:57:27.505Z,10.30
2018-03-07T15:59:53.592Z,10.30
2018-03-07T16:02:19.772Z,10.40
2018-03-07T16:04:45.892Z,10.40
2018-03-07T16:07:12.721Z,10.20
2018-03-07T16:09:38.827Z,10.20
2018-03-07T16:12:04.920Z,10.10
2018-03-07T16:14:31.112Z,10.10
2018-03-07T16:16:57.273Z,10.10
2018-03-07T16:19:24.212Z,10.10
2018-03-07T16:21:50.349Z,10.10
2018-03-07T16:24:16.442Z,10.30
2018-03-07T16:26:43.295Z,10.00
2018-03-07T16:29:09.408Z,10.00
2018-03-07T16:31:35.636Z,9.90
2018-03-07T16:34:02.271Z,9.80
2018-03-07T16:36:28.489Z,9.70
2018-03-07T16:38:54.576Z,9.80
2018-03-07T16:41:20.701Z,9.80
2018-03-07T16:43:46.856Z,9.90
2018-03-07T16:46:13.996Z,9.60
2018-03-07T16:48:40.936Z,9.70
2018-03-07T16:51:07.831Z,9.60
2018-03-07T16:53:33.991Z,9.60
2018-03-07T16:56:00.105Z,9.70
2018-03-07T16:58:26.233Z,9.70
2018-03-07T17:00:52.396Z,9.70
2018-03-07T17:03:18.480Z,9.70
2018-03-07T17:05:44.560Z,9.70
2018-03-07T17:08:11.011Z,9.80
2018-03-07T17:10:37.512Z,9.70
2018-03-07T17:13:04.365Z,9.50
2018-03-07T17:15:30.475Z,9.50
2018-03-07T17:17:56.575Z,9.50
2018-03-07T17:20:23.401Z,9.40
2018-03-07T17:22:50.766Z,9.40
2018-03-07T17:25:16.860Z,9.60
2018-03-07T17:27:43.697Z,9.60
2018-03-07T17:30:09.813Z,9.60
2018-03-07T17:32:35.915Z,9.50
2018-03-07T17:35:02.032Z,9.60
2018-03-07T17:37:28.865Z,9.50
2018-03-07T17:39:54.960Z,9.50
2018-03-07T17:42:21.050Z,9.40
2018-03-07T17:44:47.340Z,9.40
2018-03-07T17:47:13.718Z,9.40
2018-03-07T17:49:40.053Z,9.30
2018-03-07T17:52:06.356Z,9.40
2018-03-07T17:54:33.453Z,9.20
2018-03-07T17:56:59.931Z,9.30
2018-03-07T17:59:26.312Z,9.30
2018-03-07T18:01:52.851Z,9.30
2018-03-07T18:04:19.146Z,9.30
2018-03-07T18:06:49.035Z,9.10
2018-03-07T18:09:16.094Z,9.00
2018-03-07T18:11:42.468Z,9.00
2018-03-07T18:14:09.622Z,9.00
2018-03-07T18:16:36.814Z,9.00
2018-03-07T18:19:03.661Z,9.10
2018-03-07T18:21:30.484Z,8.90
2018-03-07T18:23:56.582Z,8.90
2018-03-07T18:26:22.683Z,8.90
2018-03-07T18:28:48.788Z,8.90
2018-03-07T18:31:14.887Z,9.00
2018-03-07T18:33:41.007Z,8.90
2018-03-07T18:36:07.868Z,9.00
2018-03-07T18:38:35.325Z,8.70
2018-03-07T18:41:01.638Z,8.90
2018-03-07T18:43:28.068Z,9.10
2018-03-07T18:45:54.372Z,9.00
2018-03-07T18:48:20.728Z,8.90
2018-03-07T18:50:47.081Z,8.90
2018-03-07T18:53:13.405Z,8.80
2018-03-07T18:55:43.200Z,8.50
2018-03-07T18:58:09.536Z,8.80
2018-03-07T19:00:35.844Z,8.70
2018-03-07T19:03:02.963Z,8.50
2018-03-07T19:05:29.266Z,8.50
2018-03-07T19:07:56.412Z,8.50
2018-03-07T19:10:22.721Z,8.50
2018-03-07T19:12:52.587Z,8.40
2018-03-07T19:15:18.913Z,8.40
2018-03-07T19:17:45.247Z,8.60
2018-03-07T19:20:11.548Z,8.10
2018-03-07T19:22:37.833Z,8.30
2018-03-07T19:25:04.171Z,8.20
2018-03-07T19:27:33.164Z,8.30
2018-03-07T19:29:59.521Z,8.30
2018-03-07T19:32:25.823Z,8.20
2018-03-07T19:34:52.113Z,7.80
2018-03-07T19:37:18.455Z,7.90
2018-03-07T19:39:44.769Z,7.80
2018-03-07T19:42:11.091Z,7.40
2018-03-07T19:44:38.209Z,7.60
2018-03-07T19:47:09.045Z,7.60
2018-03-07T19:49:35.301Z,7.80
2018-03-07T19:52:01.628Z,7.80
2018-03-07T19:54:27.963Z,7.80
2018-03-07T19:56:55.014Z,7.60
2018-03-07T19:59:21.360Z,7.60
2018-03-07T20:01:49.174Z,7.60
2018-03-07T20:04:15.319Z,7.60
2018-03-07T20:06:44.973Z,7.50
2018-03-07T20:09:11.105Z,7.50
2018-03-07T20:11:38.029Z,7.60
2018-03-07T20:14:04.165Z,7.60
2018-03-07T20:16:30.511Z,7.60
2018-03-07T20:18:58.344Z,7.60
2018-03-07T20:21:24.432Z,7.60
2018-03-07T20:23:53.396Z,7.50
2018-03-07T20:26:19.729Z,7.50
2018-03-07T20:28:46.140Z,7.50
2018-03-07T20:31:12.525Z,7.60
2018-03-07T20:33:38.843Z,7.70
2018-03-07T20:36:05.233Z,7.50
2018-03-07T20:38:32.290Z,7.50
2018-03-07T20:41:13.601Z,7.50
2018-03-07T20:43:39.684Z,7.50
2018-03-07T20:46:05.777Z,7.50
2018-03-07T20:48:31.880Z,7.50
2018-03-07T20:50:57.984Z,7.50
2018-03-07T20:53:26.848Z,7.50
2018-03-07T20:55:53.014Z,7.40
2018-03-07T20:58:19.142Z,7.50
2018-03-07T21:00:46.032Z,7.30
2018-03-07T21:03:12.132Z,7.30
2018-03-07T21:05:38.233Z,7.30
2018-03-07T21:08:04.464Z,7.40
2018-03-07T21:10:30.579Z,7.30
2018-03-07T21:13:00.816Z,7.30
2018-03-07T21:15:27.649Z,7.40
2018-03-07T21:17:53.793Z,7.40
2018-03-07T21:20:19.911Z,7.50
2018-03-07T21:22:46.833Z,7.60
2018-03-07T21:25:13.708Z,7.50
2018-03-07T21:27:40.633Z,7.50
2018-03-07T21:30:09.552Z,7.40
2018-03-07T21:32:35.682Z,7.40
2018-03-07T21:35:01.785Z,7.40
2018-03-07T21:37:27.904Z,7.30
2018-03-07T21:39:54.740Z,7.20
2018-03-07T21:42:20.843Z,7.20
2018-03-07T21:44:46.931Z,7.20
2018-03-07T21:47:13.824Z,7.30
2018-03-07T21:49:39.918Z,7.30
2018-03-07T21:52:06.042Z,7.30
2018-03-07T21:54:32.149Z,7.30
2018-03-07T21:56:58.324Z,7.20
2018-03-07T21:59:24.429Z,7.30
2018-03-07T22:01:50.524Z,7.10
2018-03-07T22:04:17.443Z,7.10
2018-03-07T22:06:43.584Z,7.10
2018-03-07T22:09:09.706Z,7.20
2018-03-07T22:11:38.824Z,6.90
2018-03-07T22:14:04.926Z,6.90
2018-03-07T22:16:31.029Z,7.00
2018-03-07T22:18:57.128Z,6.90
2018-03-07T22:21:23.243Z,6.90
2018-03-07T22:23:49.384Z,7.10
2018-03-07T22:26:16.308Z,6.90
2018-03-07T22:28:45.926Z,7.10
2018-03-07T22:31:12.937Z,6.80
2018-03-07T22:33:39.865Z,6.70
2018-03-07T22:36:05.980Z,6.70
2018-03-07T22:38:32.063Z,6.70
2018-03-07T22:40:58.948Z,6.60
2018-03-07T22:43:29.812Z,6.70
2018-03-07T22:45:55.942Z,6.40
2018-03-07T22:48:22.048Z,6.50
2018-03-07T22:50:48.166Z,6.50
2018-03-07T22:53:14.290Z,6.50
2018-03-07T22:55:40.416Z,6.50
2018-03-07T22:58:06.636Z,6.50
2018-03-07T23:00:39.554Z,6.50
2018-03-07T23:03:06.420Z,6.40
2018-03-07T23:05:32.519Z,6.40
2018-03-07T23:07:58.643Z,6.30
2018-03-07T23:10:24.737Z,6.40
2018-03-07T23:12:51.666Z,6.40
2018-03-07T23:15:17.792Z,6.30
2018-03-07T23:17:49.039Z,6.30
2018-03-07T23:20:15.151Z,6.40
2018-03-07T23:22:41.240Z,6.40
2018-03-07T23:25:07.352Z,6.50
2018-03-07T23:27:34.317Z,6.30
2018-03-07T23:30:01.153Z,6.20
2018-03-07T23:32:27.247Z,6.20
2018-03-07T23:34:54.840Z,6.20
2018-03-07T23:37:24.737Z,6.20
2018-03-07T23:39:51.602Z,6.20
2018-03-07T23:42:18.478Z,6.20
2018-03-07T23:44:46.078Z,6.20
2018-03-07T23:47:12.175Z,6.20
2018-03-07T23:49:38.266Z,6.10
2018-03-07T23:52:10.211Z,6.30
2018-03-07T23:54:36.332Z,6.20
2018-03-07T23:57:02.483Z,6.20
2018-03-07T23:59:28.568Z,6.20
